sensor_id;sensor_type;location;lat;lon;timestamp;P1;P2;P0
64861;PMS5003;62652;42.274;-71.436;2023-09-19T00:00:00;2.40;2.40;1.40
64861;PMS5003;62652;42.274;-71.436;2023-09-19T00:01:00;3.73;3.63;2.83
64861;PMS5003;62652;42.274;-71.436;2023-09-19T00:02:00;4.10;4.10;3.20
64861;PMS5003;62652;42.274;-71.436;2023-09-19T00:03:00;2.47;2.10;1.77
64861;PMS5003;62652;42.274;-71.436;2023-09-19T00:04:00;1.10;1.10;0.90
64861;PMS5003;62652;42.274;-71.436;2023-09-19T00:05:00;1.07;0.83;0.57
64861;PMS5003;62652;42.274;-71.436;2023-09-19T00:06:00;1.43;1.43;0.77
64861;PMS5003;62652;42.274;-71.436;2023-09-19T00:07:00;1.90;1.77;0.90
64861;PMS5003;62652;42.274;-71.436;2023-09-19T00:08:00;2.50;2.00;1.00
64861;PMS5003;62652;42.274;-71.436;2023-09-19T00:09:00;1.47;1.47;1.00
64861;PMS5003;62652;42.274;-71.436;2023-09-19T00:10:00;1.23;1.23;0.87
64861;PMS5003;62652;42.274;-71.436;2023-09-19T00:11:00;2.60;1.43;0.57
64861;PMS5003;62652;42.274;-71.436;2023-09-19T00:12:00;1.37;1.20;1.00
64861;PMS5003;62652;42.274;-71.436;2023-09-19T00:13:00;0.63;0.63;0.13
64861;PMS5003;62652;42.274;-71.436;2023-09-19T00:14:00;1.00;1.00;0.93
64861;PMS5003;62652;42.274;-71.436;2023-09-19T00:15:00;0.80;0.80;0.57
64861;PMS5003;62652;42.274;-71.436;2023-09-19T00:16:00;2.13;1.67;0.90
64861;PMS5003;62652;42.274;-71.436;2023-09-19T00:17:00;0.87;0.70;0.70
64861;PMS5003;62652;42.274;-71.436;2023-09-19T00:18:00;1.73;1.73;0.77
64861;PMS5003;62652;42.274;-71.436;2023-09-19T00:19:00;2.20;2.20;1.43
64861;PMS5003;62652;42.274;-71.436;2023-09-19T00:20:00;1.97;1.97;1.00
64861;PMS5003;62652;42.274;-71.436;2023-09-19T00:21:00;2.47;2.47;1.80
64861;PMS5003;62652;42.274;-71.436;2023-09-19T00:22:00;1.33;1.33;0.83
64861;PMS5003;62652;42.274;-71.436;2023-09-19T00:23:00;1.63;1.63;1.03
64861;PMS5003;62652;42.274;-71.436;2023-09-19T00:24:00;2.30;1.50;0.87
64861;PMS5003;62652;42.274;-71.436;2023-09-19T00:25:00;0.60;0.50;0.50
64861;PMS5003;62652;42.274;-71.436;2023-09-19T00:26:00;0.70;0.70;0.40
64861;PMS5003;62652;42.274;-71.436;2023-09-19T00:27:00;0.63;0.33;0.27
64861;PMS5003;62652;42.274;-71.436;2023-09-19T00:28:00;1.40;1.40;0.90
64861;PMS5003;62652;42.274;-71.436;2023-09-19T00:29:00;1.67;0.77;0.17
64861;PMS5003;62652;42.274;-71.436;2023-09-19T00:30:00;1.10;1.10;0.90
64861;PMS5003;62652;42.274;-71.436;2023-09-19T00:31:00;0.80;0.80;0.60
64861;PMS5003;62652;42.274;-71.436;2023-09-19T00:32:00;2.27;0.67;0.60
64861;PMS5003;62652;42.274;-71.436;2023-09-19T00:33:00;2.10;2.10;1.20
64861;PMS5003;62652;42.274;-71.436;2023-09-19T00:34:00;1.87;1.87;1.40
64861;PMS5003;62652;42.274;-71.436;2023-09-19T00:35:00;0.70;0.70;0.47
64861;PMS5003;62652;42.274;-71.436;2023-09-19T00:36:00;0.90;0.90;0.00
64861;PMS5003;62652;42.274;-71.436;2023-09-19T00:37:00;0.80;0.80;0.20
64861;PMS5003;62652;42.274;-71.436;2023-09-19T00:38:00;0.80;0.80;0.00
64861;PMS5003;62652;42.274;-71.436;2023-09-19T00:39:00;1.00;1.00;1.00
64861;PMS5003;62652;42.274;-71.436;2023-09-19T00:40:00;0.87;0.87;0.77
64861;PMS5003;62652;42.274;-71.436;2023-09-19T00:41:00;1.43;1.10;0.10
64861;PMS5003;62652;42.274;-71.436;2023-09-19T00:42:00;0.57;0.57;0.00
64861;PMS5003;62652;42.274;-71.436;2023-09-19T00:43:00;0.30;0.30;0.00
64861;PMS5003;62652;42.274;-71.436;2023-09-19T00:44:00;0.70;0.70;0.70
64861;PMS5003;62652;42.274;-71.436;2023-09-19T00:45:00;0.10;0.10;0.00
64861;PMS5003;62652;42.274;-71.436;2023-09-19T00:46:00;0.40;0.40;0.40
64861;PMS5003;62652;42.274;-71.436;2023-09-19T00:47:00;0.03;0.03;0.00
64861;PMS5003;62652;42.274;-71.436;2023-09-19T00:48:00;0.40;0.40;0.17
64861;PMS5003;62652;42.274;-71.436;2023-09-19T00:49:00;0.73;0.73;0.20
64861;PMS5003;62652;42.274;-71.436;2023-09-19T00:50:00;0.43;0.43;0.00
64861;PMS5003;62652;42.274;-71.436;2023-09-19T00:51:02;0.27;0.27;0.00
64861;PMS5003;62652;42.274;-71.436;2023-09-19T00:52:00;0.77;0.00;0.00
64861;PMS5003;62652;42.274;-71.436;2023-09-19T00:53:00;0.30;0.30;0.00
64861;PMS5003;62652;42.274;-71.436;2023-09-19T00:54:00;0.70;0.67;0.57
64861;PMS5003;62652;42.274;-71.436;2023-09-19T00:55:00;0.33;0.33;0.20
64861;PMS5003;62652;42.274;-71.436;2023-09-19T00:56:00;0.27;0.27;0.00
64861;PMS5003;62652;42.274;-71.436;2023-09-19T00:57:00;0.40;0.40;0.00
64861;PMS5003;62652;42.274;-71.436;2023-09-19T00:58:00;0.87;0.87;0.00
64861;PMS5003;62652;42.274;-71.436;2023-09-19T00:59:00;0.57;0.57;0.00
64861;PMS5003;62652;42.274;-71.436;2023-09-19T01:00:00;0.53;0.53;0.03
64861;PMS5003;62652;42.274;-71.436;2023-09-19T01:01:01;0.40;0.00;0.00
64861;PMS5003;62652;42.274;-71.436;2023-09-19T01:02:00;0.40;0.40;0.33
64861;PMS5003;62652;42.274;-71.436;2023-09-19T01:03:00;0.07;0.07;0.00
64861;PMS5003;62652;42.274;-71.436;2023-09-19T01:04:00;0.07;0.00;0.00
64861;PMS5003;62652;42.274;-71.436;2023-09-19T01:05:00;0.83;0.60;0.20
64861;PMS5003;62652;42.274;-71.436;2023-09-19T01:06:00;0.20;0.20;0.00
64861;PMS5003;62652;42.274;-71.436;2023-09-19T01:07:00;0.00;0.00;0.00
64861;PMS5003;62652;42.274;-71.436;2023-09-19T01:08:00;0.13;0.00;0.00
64861;PMS5003;62652;42.274;-71.436;2023-09-19T01:09:00;0.60;0.30;0.00
64861;PMS5003;62652;42.274;-71.436;2023-09-19T01:10:00;0.00;0.00;0.00
64861;PMS5003;62652;42.274;-71.436;2023-09-19T01:11:07;0.07;0.00;0.00
64861;PMS5003;62652;42.274;-71.436;2023-09-19T01:12:01;0.17;0.17;0.00
64861;PMS5003;62652;42.274;-71.436;2023-09-19T01:13:03;0.00;0.00;0.00
64861;PMS5003;62652;42.274;-71.436;2023-09-19T01:14:02;0.50;0.50;0.50
64861;PMS5003;62652;42.274;-71.436;2023-09-19T01:15:03;0.73;0.70;0.40
64861;PMS5003;62652;42.274;-71.436;2023-09-19T01:16:03;0.20;0.20;0.00
64861;PMS5003;62652;42.274;-71.436;2023-09-19T01:17:03;1.07;0.47;0.00
64861;PMS5003;62652;42.274;-71.436;2023-09-19T01:18:02;0.83;0.00;0.00
64861;PMS5003;62652;42.274;-71.436;2023-09-19T01:19:05;0.00;0.00;0.00
64861;PMS5003;62652;42.274;-71.436;2023-09-19T01:20:03;0.53;0.53;0.03
64861;PMS5003;62652;42.274;-71.436;2023-09-19T01:21:02;0.13;0.13;0.00
64861;PMS5003;62652;42.274;-71.436;2023-09-19T01:22:03;0.00;0.00;0.00
64861;PMS5003;62652;42.274;-71.436;2023-09-19T01:23:03;0.00;0.00;0.00
64861;PMS5003;62652;42.274;-71.436;2023-09-19T01:24:08;0.27;0.27;0.00
64861;PMS5003;62652;42.274;-71.436;2023-09-19T01:25:07;0.00;0.00;0.00
64861;PMS5003;62652;42.274;-71.436;2023-09-19T01:26:05;0.00;0.00;0.00
64861;PMS5003;62652;42.274;-71.436;2023-09-19T01:27:06;0.73;0.00;0.00
64861;PMS5003;62652;42.274;-71.436;2023-09-19T01:28:06;0.00;0.00;0.00
64861;PMS5003;62652;42.274;-71.436;2023-09-19T01:29:04;0.00;0.00;0.00
64861;PMS5003;62652;42.274;-71.436;2023-09-19T01:30:06;0.00;0.00;0.00
64861;PMS5003;62652;42.274;-71.436;2023-09-19T01:31:00;0.00;0.00;0.00
64861;PMS5003;62652;42.274;-71.436;2023-09-19T01:32:01;0.00;0.00;0.00
64861;PMS5003;62652;42.274;-71.436;2023-09-19T01:33:00;0.00;0.00;0.00
64861;PMS5003;62652;42.274;-71.436;2023-09-19T01:34:01;0.00;0.00;0.00
64861;PMS5003;62652;42.274;-71.436;2023-09-19T01:35:00;0.00;0.00;0.00
64861;PMS5003;62652;42.274;-71.436;2023-09-19T01:36:00;0.00;0.00;0.00
64861;PMS5003;62652;42.274;-71.436;2023-09-19T01:37:00;0.10;0.10;0.00
64861;PMS5003;62652;42.274;-71.436;2023-09-19T01:38:00;0.00;0.00;0.00
64861;PMS5003;62652;42.274;-71.436;2023-09-19T01:39:00;0.00;0.00;0.00
64861;PMS5003;62652;42.274;-71.436;2023-09-19T01:40:01;0.53;0.53;0.53
64861;PMS5003;62652;42.274;-71.436;2023-09-19T01:41:00;0.00;0.00;0.00
64861;PMS5003;62652;42.274;-71.436;2023-09-19T01:42:01;0.00;0.00;0.00
64861;PMS5003;62652;42.274;-71.436;2023-09-19T01:43:08;0.00;0.00;0.00
64861;PMS5003;62652;42.274;-71.436;2023-09-19T01:44:00;0.00;0.00;0.00
64861;PMS5003;62652;42.274;-71.436;2023-09-19T01:45:03;0.00;0.00;0.00
64861;PMS5003;62652;42.274;-71.436;2023-09-19T01:46:02;0.00;0.00;0.00
64861;PMS5003;62652;42.274;-71.436;2023-09-19T01:47:01;0.00;0.00;0.00
64861;PMS5003;62652;42.274;-71.436;2023-09-19T01:48:02;0.03;0.00;0.00
64861;PMS5003;62652;42.274;-71.436;2023-09-19T01:49:03;0.00;0.00;0.00
64861;PMS5003;62652;42.274;-71.436;2023-09-19T01:50:02;0.00;0.00;0.00
64861;PMS5003;62652;42.274;-71.436;2023-09-19T01:51:00;0.00;0.00;0.00
64861;PMS5003;62652;42.274;-71.436;2023-09-19T01:52:02;0.00;0.00;0.00
64861;PMS5003;62652;42.274;-71.436;2023-09-19T01:53:02;0.00;0.00;0.00
64861;PMS5003;62652;42.274;-71.436;2023-09-19T01:54:01;0.00;0.00;0.00
64861;PMS5003;62652;42.274;-71.436;2023-09-19T01:55:02;0.00;0.00;0.00
64861;PMS5003;62652;42.274;-71.436;2023-09-19T01:56:00;0.00;0.00;0.00
64861;PMS5003;62652;42.274;-71.436;2023-09-19T01:57:01;0.00;0.00;0.00
64861;PMS5003;62652;42.274;-71.436;2023-09-19T01:58:01;0.00;0.00;0.00
64861;PMS5003;62652;42.274;-71.436;2023-09-19T01:59:01;0.00;0.00;0.00
64861;PMS5003;62652;42.274;-71.436;2023-09-19T02:00:02;0.00;0.00;0.00
64861;PMS5003;62652;42.274;-71.436;2023-09-19T02:01:00;0.00;0.00;0.00
64861;PMS5003;62652;42.274;-71.436;2023-09-19T02:02:00;0.27;0.00;0.00
64861;PMS5003;62652;42.274;-71.436;2023-09-19T02:03:00;0.00;0.00;0.00
64861;PMS5003;62652;42.274;-71.436;2023-09-19T02:04:00;0.00;0.00;0.00
64861;PMS5003;62652;42.274;-71.436;2023-09-19T02:05:00;0.00;0.00;0.00
64861;PMS5003;62652;42.274;-71.436;2023-09-19T02:06:00;0.00;0.00;0.00
64861;PMS5003;62652;42.274;-71.436;2023-09-19T02:07:00;0.00;0.00;0.00
64861;PMS5003;62652;42.274;-71.436;2023-09-19T02:08:00;0.00;0.00;0.00
64861;PMS5003;62652;42.274;-71.436;2023-09-19T02:09:00;0.00;0.00;0.00
64861;PMS5003;62652;42.274;-71.436;2023-09-19T02:10:00;0.00;0.00;0.00
64861;PMS5003;62652;42.274;-71.436;2023-09-19T02:11:00;0.00;0.00;0.00
64861;PMS5003;62652;42.274;-71.436;2023-09-19T02:12:00;0.00;0.00;0.00
64861;PMS5003;62652;42.274;-71.436;2023-09-19T02:13:00;0.00;0.00;0.00
64861;PMS5003;62652;42.274;-71.436;2023-09-19T02:14:00;0.00;0.00;0.00
64861;PMS5003;62652;42.274;-71.436;2023-09-19T02:15:00;0.00;0.00;0.00
64861;PMS5003;62652;42.274;-71.436;2023-09-19T02:16:00;0.00;0.00;0.00
64861;PMS5003;62652;42.274;-71.436;2023-09-19T02:17:00;0.00;0.00;0.00
64861;PMS5003;62652;42.274;-71.436;2023-09-19T02:18:00;0.00;0.00;0.00
64861;PMS5003;62652;42.274;-71.436;2023-09-19T02:19:00;0.00;0.00;0.00
64861;PMS5003;62652;42.274;-71.436;2023-09-19T02:20:00;0.00;0.00;0.00
64861;PMS5003;62652;42.274;-71.436;2023-09-19T02:21:00;0.47;0.40;0.00
64861;PMS5003;62652;42.274;-71.436;2023-09-19T02:22:00;0.10;0.10;0.00
64861;PMS5003;62652;42.274;-71.436;2023-09-19T02:23:00;0.03;0.03;0.00
64861;PMS5003;62652;42.274;-71.436;2023-09-19T02:24:00;0.33;0.13;0.00
64861;PMS5003;62652;42.274;-71.436;2023-09-19T02:25:00;0.00;0.00;0.00
64861;PMS5003;62652;42.274;-71.436;2023-09-19T02:26:00;0.33;0.03;0.00
64861;PMS5003;62652;42.274;-71.436;2023-09-19T02:27:00;0.00;0.00;0.00
64861;PMS5003;62652;42.274;-71.436;2023-09-19T02:28:00;0.60;0.60;0.57
64861;PMS5003;62652;42.274;-71.436;2023-09-19T02:29:00;0.47;0.47;0.00
64861;PMS5003;62652;42.274;-71.436;2023-09-19T02:30:00;0.07;0.07;0.07
64861;PMS5003;62652;42.274;-71.436;2023-09-19T02:31:00;0.90;0.90;0.00
64861;PMS5003;62652;42.274;-71.436;2023-09-19T02:32:00;0.83;0.00;0.00
64861;PMS5003;62652;42.274;-71.436;2023-09-19T02:33:00;0.47;0.47;0.07
64861;PMS5003;62652;42.274;-71.436;2023-09-19T02:34:00;1.00;1.00;0.53
64861;PMS5003;62652;42.274;-71.436;2023-09-19T02:35:00;0.47;0.40;0.00
64861;PMS5003;62652;42.274;-71.436;2023-09-19T02:36:00;0.17;0.17;0.00
64861;PMS5003;62652;42.274;-71.436;2023-09-19T02:37:00;0.63;0.63;0.13
64861;PMS5003;62652;42.274;-71.436;2023-09-19T02:38:00;0.77;0.73;0.53
64861;PMS5003;62652;42.274;-71.436;2023-09-19T02:39:00;0.80;0.80;0.47
64861;PMS5003;62652;42.274;-71.436;2023-09-19T02:40:00;0.50;0.37;0.00
64861;PMS5003;62652;42.274;-71.436;2023-09-19T02:41:00;0.87;0.87;0.30
64861;PMS5003;62652;42.274;-71.436;2023-09-19T02:42:00;0.17;0.17;0.00
64861;PMS5003;62652;42.274;-71.436;2023-09-19T02:43:00;1.00;1.00;0.97
64861;PMS5003;62652;42.274;-71.436;2023-09-19T02:44:00;0.87;0.87;0.57
64861;PMS5003;62652;42.274;-71.436;2023-09-19T02:45:00;0.90;0.90;0.07
64861;PMS5003;62652;42.274;-71.436;2023-09-19T02:46:00;1.00;1.00;0.27
64861;PMS5003;62652;42.274;-71.436;2023-09-19T02:47:00;0.33;0.33;0.13
64861;PMS5003;62652;42.274;-71.436;2023-09-19T02:48:00;0.43;0.43;0.33
64861;PMS5003;62652;42.274;-71.436;2023-09-19T02:49:00;0.23;0.23;0.00
64861;PMS5003;62652;42.274;-71.436;2023-09-19T02:50:00;0.30;0.30;0.00
64861;PMS5003;62652;42.274;-71.436;2023-09-19T02:51:00;0.80;0.80;0.20
64861;PMS5003;62652;42.274;-71.436;2023-09-19T02:52:00;0.00;0.00;0.00
64861;PMS5003;62652;42.274;-71.436;2023-09-19T02:53:00;0.00;0.00;0.00
64861;PMS5003;62652;42.274;-71.436;2023-09-19T02:54:00;0.87;0.00;0.00
64861;PMS5003;62652;42.274;-71.436;2023-09-19T02:55:00;0.67;0.67;0.57
64861;PMS5003;62652;42.274;-71.436;2023-09-19T02:56:00;0.63;0.63;0.00
64861;PMS5003;62652;42.274;-71.436;2023-09-19T02:57:00;0.00;0.00;0.00
64861;PMS5003;62652;42.274;-71.436;2023-09-19T02:58:00;0.10;0.10;0.00
64861;PMS5003;62652;42.274;-71.436;2023-09-19T02:59:00;0.53;0.00;0.00
64861;PMS5003;62652;42.274;-71.436;2023-09-19T03:00:00;0.43;0.43;0.00
64861;PMS5003;62652;42.274;-71.436;2023-09-19T03:01:07;0.77;0.77;0.00
64861;PMS5003;62652;42.274;-71.436;2023-09-19T03:02:00;0.00;0.00;0.00
64861;PMS5003;62652;42.274;-71.436;2023-09-19T03:03:00;0.63;0.63;0.00
64861;PMS5003;62652;42.274;-71.436;2023-09-19T03:04:00;0.00;0.00;0.00
64861;PMS5003;62652;42.274;-71.436;2023-09-19T03:05:00;0.00;0.00;0.00
64861;PMS5003;62652;42.274;-71.436;2023-09-19T03:06:00;0.00;0.00;0.00
64861;PMS5003;62652;42.274;-71.436;2023-09-19T03:07:00;0.00;0.00;0.00
64861;PMS5003;62652;42.274;-71.436;2023-09-19T03:08:00;0.00;0.00;0.00
64861;PMS5003;62652;42.274;-71.436;2023-09-19T03:09:00;0.00;0.00;0.00
64861;PMS5003;62652;42.274;-71.436;2023-09-19T03:10:00;0.00;0.00;0.00
64861;PMS5003;62652;42.274;-71.436;2023-09-19T03:11:00;0.00;0.00;0.00
64861;PMS5003;62652;42.274;-71.436;2023-09-19T03:12:00;0.00;0.00;0.00
64861;PMS5003;62652;42.274;-71.436;2023-09-19T03:13:00;0.00;0.00;0.00
64861;PMS5003;62652;42.274;-71.436;2023-09-19T03:14:00;0.00;0.00;0.00
64861;PMS5003;62652;42.274;-71.436;2023-09-19T03:15:00;0.30;0.20;0.00
64861;PMS5003;62652;42.274;-71.436;2023-09-19T03:16:00;0.00;0.00;0.00
64861;PMS5003;62652;42.274;-71.436;2023-09-19T03:17:00;0.00;0.00;0.00
64861;PMS5003;62652;42.274;-71.436;2023-09-19T03:18:00;0.00;0.00;0.00
64861;PMS5003;62652;42.274;-71.436;2023-09-19T03:19:00;0.00;0.00;0.00
64861;PMS5003;62652;42.274;-71.436;2023-09-19T03:20:00;0.00;0.00;0.00
64861;PMS5003;62652;42.274;-71.436;2023-09-19T03:21:00;0.00;0.00;0.00
64861;PMS5003;62652;42.274;-71.436;2023-09-19T03:22:00;0.00;0.00;0.00
64861;PMS5003;62652;42.274;-71.436;2023-09-19T03:23:00;0.00;0.00;0.00
64861;PMS5003;62652;42.274;-71.436;2023-09-19T03:24:00;0.00;0.00;0.00
64861;PMS5003;62652;42.274;-71.436;2023-09-19T03:25:00;0.00;0.00;0.00
64861;PMS5003;62652;42.274;-71.436;2023-09-19T03:26:00;0.00;0.00;0.00
64861;PMS5003;62652;42.274;-71.436;2023-09-19T03:27:00;0.10;0.00;0.00
64861;PMS5003;62652;42.274;-71.436;2023-09-19T03:28:00;0.00;0.00;0.00
64861;PMS5003;62652;42.274;-71.436;2023-09-19T03:29:03;0.00;0.00;0.00
64861;PMS5003;62652;42.274;-71.436;2023-09-19T03:30:00;0.00;0.00;0.00
64861;PMS5003;62652;42.274;-71.436;2023-09-19T03:31:01;0.87;0.87;0.87
64861;PMS5003;62652;42.274;-71.436;2023-09-19T03:32:00;0.00;0.00;0.00
64861;PMS5003;62652;42.274;-71.436;2023-09-19T03:33:00;0.03;0.00;0.00
64861;PMS5003;62652;42.274;-71.436;2023-09-19T03:34:00;0.10;0.10;0.00
64861;PMS5003;62652;42.274;-71.436;2023-09-19T03:35:00;0.00;0.00;0.00
64861;PMS5003;62652;42.274;-71.436;2023-09-19T03:36:00;0.00;0.00;0.00
64861;PMS5003;62652;42.274;-71.436;2023-09-19T03:37:00;0.00;0.00;0.00
64861;PMS5003;62652;42.274;-71.436;2023-09-19T03:38:00;0.00;0.00;0.00
64861;PMS5003;62652;42.274;-71.436;2023-09-19T03:39:01;0.00;0.00;0.00
64861;PMS5003;62652;42.274;-71.436;2023-09-19T03:40:00;0.00;0.00;0.00
64861;PMS5003;62652;42.274;-71.436;2023-09-19T03:41:00;0.00;0.00;0.00
64861;PMS5003;62652;42.274;-71.436;2023-09-19T03:42:00;0.77;0.77;0.77
64861;PMS5003;62652;42.274;-71.436;2023-09-19T03:43:00;0.00;0.00;0.00
64861;PMS5003;62652;42.274;-71.436;2023-09-19T03:44:00;0.00;0.00;0.00
64861;PMS5003;62652;42.274;-71.436;2023-09-19T03:45:00;0.00;0.00;0.00
64861;PMS5003;62652;42.274;-71.436;2023-09-19T03:46:01;0.00;0.00;0.00
64861;PMS5003;62652;42.274;-71.436;2023-09-19T03:47:00;0.00;0.00;0.00
64861;PMS5003;62652;42.274;-71.436;2023-09-19T03:48:00;0.00;0.00;0.00
64861;PMS5003;62652;42.274;-71.436;2023-09-19T03:49:00;0.00;0.00;0.00
64861;PMS5003;62652;42.274;-71.436;2023-09-19T03:50:00;0.00;0.00;0.00
64861;PMS5003;62652;42.274;-71.436;2023-09-19T03:51:00;0.00;0.00;0.00
64861;PMS5003;62652;42.274;-71.436;2023-09-19T03:52:00;0.00;0.00;0.00
64861;PMS5003;62652;42.274;-71.436;2023-09-19T03:53:00;0.00;0.00;0.00
64861;PMS5003;62652;42.274;-71.436;2023-09-19T03:54:00;0.00;0.00;0.00
64861;PMS5003;62652;42.274;-71.436;2023-09-19T03:55:00;0.00;0.00;0.00
64861;PMS5003;62652;42.274;-71.436;2023-09-19T03:56:00;0.00;0.00;0.00
64861;PMS5003;62652;42.274;-71.436;2023-09-19T03:57:00;0.00;0.00;0.00
64861;PMS5003;62652;42.274;-71.436;2023-09-19T03:58:00;0.00;0.00;0.00
64861;PMS5003;62652;42.274;-71.436;2023-09-19T03:59:00;0.00;0.00;0.00
64861;PMS5003;62652;42.274;-71.436;2023-09-19T04:00:00;0.57;0.37;0.00
64861;PMS5003;62652;42.274;-71.436;2023-09-19T04:01:00;0.00;0.00;0.00
64861;PMS5003;62652;42.274;-71.436;2023-09-19T04:02:00;0.00;0.00;0.00
64861;PMS5003;62652;42.274;-71.436;2023-09-19T04:03:00;0.00;0.00;0.00
64861;PMS5003;62652;42.274;-71.436;2023-09-19T04:04:00;0.33;0.00;0.00
64861;PMS5003;62652;42.274;-71.436;2023-09-19T04:05:00;0.33;0.00;0.00
64861;PMS5003;62652;42.274;-71.436;2023-09-19T04:06:00;0.00;0.00;0.00
64861;PMS5003;62652;42.274;-71.436;2023-09-19T04:07:00;0.00;0.00;0.00
64861;PMS5003;62652;42.274;-71.436;2023-09-19T04:08:00;0.33;0.00;0.00
64861;PMS5003;62652;42.274;-71.436;2023-09-19T04:09:00;0.27;0.27;0.00
64861;PMS5003;62652;42.274;-71.436;2023-09-19T04:10:00;0.70;0.70;0.00
64861;PMS5003;62652;42.274;-71.436;2023-09-19T04:11:00;0.00;0.00;0.00
64861;PMS5003;62652;42.274;-71.436;2023-09-19T04:12:00;0.00;0.00;0.00
64861;PMS5003;62652;42.274;-71.436;2023-09-19T04:13:00;0.63;0.17;0.00
64861;PMS5003;62652;42.274;-71.436;2023-09-19T04:14:02;0.00;0.00;0.00
64861;PMS5003;62652;42.274;-71.436;2023-09-19T04:15:00;0.30;0.00;0.00
64861;PMS5003;62652;42.274;-71.436;2023-09-19T04:16:00;0.00;0.00;0.00
64861;PMS5003;62652;42.274;-71.436;2023-09-19T04:17:00;0.00;0.00;0.00
64861;PMS5003;62652;42.274;-71.436;2023-09-19T04:18:00;0.00;0.00;0.00
64861;PMS5003;62652;42.274;-71.436;2023-09-19T04:19:00;0.97;0.90;0.00
64861;PMS5003;62652;42.274;-71.436;2023-09-19T04:20:00;0.00;0.00;0.00
64861;PMS5003;62652;42.274;-71.436;2023-09-19T04:21:00;0.00;0.00;0.00
64861;PMS5003;62652;42.274;-71.436;2023-09-19T04:22:00;0.00;0.00;0.00
64861;PMS5003;62652;42.274;-71.436;2023-09-19T04:23:00;0.17;0.17;0.17
64861;PMS5003;62652;42.274;-71.436;2023-09-19T04:24:00;0.50;0.47;0.27
64861;PMS5003;62652;42.274;-71.436;2023-09-19T04:25:00;0.17;0.00;0.00
64861;PMS5003;62652;42.274;-71.436;2023-09-19T04:26:00;0.00;0.00;0.00
64861;PMS5003;62652;42.274;-71.436;2023-09-19T04:27:00;0.00;0.00;0.00
64861;PMS5003;62652;42.274;-71.436;2023-09-19T04:28:00;0.03;0.00;0.00
64861;PMS5003;62652;42.274;-71.436;2023-09-19T04:29:00;0.57;0.53;0.00
64861;PMS5003;62652;42.274;-71.436;2023-09-19T04:30:00;0.30;0.00;0.00
64861;PMS5003;62652;42.274;-71.436;2023-09-19T04:31:00;0.00;0.00;0.00
64861;PMS5003;62652;42.274;-71.436;2023-09-19T04:32:00;0.07;0.07;0.00
64861;PMS5003;62652;42.274;-71.436;2023-09-19T04:33:00;0.00;0.00;0.00
64861;PMS5003;62652;42.274;-71.436;2023-09-19T04:34:00;0.00;0.00;0.00
64861;PMS5003;62652;42.274;-71.436;2023-09-19T04:35:00;0.00;0.00;0.00
64861;PMS5003;62652;42.274;-71.436;2023-09-19T04:36:00;0.00;0.00;0.00
64861;PMS5003;62652;42.274;-71.436;2023-09-19T04:37:00;0.27;0.00;0.00
64861;PMS5003;62652;42.274;-71.436;2023-09-19T04:38:00;0.00;0.00;0.00
64861;PMS5003;62652;42.274;-71.436;2023-09-19T04:39:00;0.00;0.00;0.00
64861;PMS5003;62652;42.274;-71.436;2023-09-19T04:40:00;0.00;0.00;0.00
64861;PMS5003;62652;42.274;-71.436;2023-09-19T04:41:00;0.00;0.00;0.00
64861;PMS5003;62652;42.274;-71.436;2023-09-19T04:42:00;0.00;0.00;0.00
64861;PMS5003;62652;42.274;-71.436;2023-09-19T04:43:00;0.00;0.00;0.00
64861;PMS5003;62652;42.274;-71.436;2023-09-19T04:44:00;0.00;0.00;0.00
64861;PMS5003;62652;42.274;-71.436;2023-09-19T04:45:00;0.00;0.00;0.00
64861;PMS5003;62652;42.274;-71.436;2023-09-19T04:46:00;0.00;0.00;0.00
64861;PMS5003;62652;42.274;-71.436;2023-09-19T04:47:00;0.00;0.00;0.00
64861;PMS5003;62652;42.274;-71.436;2023-09-19T04:48:00;0.00;0.00;0.00
64861;PMS5003;62652;42.274;-71.436;2023-09-19T04:49:00;0.43;0.00;0.00
64861;PMS5003;62652;42.274;-71.436;2023-09-19T04:50:00;0.00;0.00;0.00
64861;PMS5003;62652;42.274;-71.436;2023-09-19T04:51:00;0.43;0.00;0.00
64861;PMS5003;62652;42.274;-71.436;2023-09-19T04:52:00;0.00;0.00;0.00
64861;PMS5003;62652;42.274;-71.436;2023-09-19T04:53:00;0.00;0.00;0.00
64861;PMS5003;62652;42.274;-71.436;2023-09-19T04:54:00;0.60;0.60;0.00
64861;PMS5003;62652;42.274;-71.436;2023-09-19T04:55:00;0.00;0.00;0.00
64861;PMS5003;62652;42.274;-71.436;2023-09-19T04:56:00;0.00;0.00;0.00
64861;PMS5003;62652;42.274;-71.436;2023-09-19T04:57:00;0.00;0.00;0.00
64861;PMS5003;62652;42.274;-71.436;2023-09-19T04:58:00;0.00;0.00;0.00
64861;PMS5003;62652;42.274;-71.436;2023-09-19T04:59:00;0.00;0.00;0.00
64861;PMS5003;62652;42.274;-71.436;2023-09-19T05:00:00;0.00;0.00;0.00
64861;PMS5003;62652;42.274;-71.436;2023-09-19T05:01:00;0.00;0.00;0.00
64861;PMS5003;62652;42.274;-71.436;2023-09-19T05:02:00;0.00;0.00;0.00
64861;PMS5003;62652;42.274;-71.436;2023-09-19T05:03:00;0.73;0.50;0.00
64861;PMS5003;62652;42.274;-71.436;2023-09-19T05:04:00;0.00;0.00;0.00
64861;PMS5003;62652;42.274;-71.436;2023-09-19T05:05:00;0.00;0.00;0.00
64861;PMS5003;62652;42.274;-71.436;2023-09-19T05:06:00;0.00;0.00;0.00
64861;PMS5003;62652;42.274;-71.436;2023-09-19T05:07:00;0.00;0.00;0.00
64861;PMS5003;62652;42.274;-71.436;2023-09-19T05:08:00;0.00;0.00;0.00
64861;PMS5003;62652;42.274;-71.436;2023-09-19T05:09:00;0.00;0.00;0.00
64861;PMS5003;62652;42.274;-71.436;2023-09-19T05:10:00;0.00;0.00;0.00
64861;PMS5003;62652;42.274;-71.436;2023-09-19T05:11:01;0.00;0.00;0.00
64861;PMS5003;62652;42.274;-71.436;2023-09-19T05:12:00;0.00;0.00;0.00
64861;PMS5003;62652;42.274;-71.436;2023-09-19T05:13:00;0.00;0.00;0.00
64861;PMS5003;62652;42.274;-71.436;2023-09-19T05:14:00;0.30;0.00;0.00
64861;PMS5003;62652;42.274;-71.436;2023-09-19T05:15:00;0.00;0.00;0.00
64861;PMS5003;62652;42.274;-71.436;2023-09-19T05:16:00;0.00;0.00;0.00
64861;PMS5003;62652;42.274;-71.436;2023-09-19T05:17:00;0.00;0.00;0.00
64861;PMS5003;62652;42.274;-71.436;2023-09-19T05:18:00;0.00;0.00;0.00
64861;PMS5003;62652;42.274;-71.436;2023-09-19T05:19:00;0.00;0.00;0.00
64861;PMS5003;62652;42.274;-71.436;2023-09-19T05:20:00;0.00;0.00;0.00
64861;PMS5003;62652;42.274;-71.436;2023-09-19T05:21:01;0.00;0.00;0.00
64861;PMS5003;62652;42.274;-71.436;2023-09-19T05:22:00;0.83;0.83;0.00
64861;PMS5003;62652;42.274;-71.436;2023-09-19T05:23:00;0.00;0.00;0.00
64861;PMS5003;62652;42.274;-71.436;2023-09-19T05:24:00;0.00;0.00;0.00
64861;PMS5003;62652;42.274;-71.436;2023-09-19T05:25:00;0.00;0.00;0.00
64861;PMS5003;62652;42.274;-71.436;2023-09-19T05:26:00;0.00;0.00;0.00
64861;PMS5003;62652;42.274;-71.436;2023-09-19T05:27:00;0.00;0.00;0.00
64861;PMS5003;62652;42.274;-71.436;2023-09-19T05:28:00;1.00;1.00;0.00
64861;PMS5003;62652;42.274;-71.436;2023-09-19T05:29:00;0.00;0.00;0.00
64861;PMS5003;62652;42.274;-71.436;2023-09-19T05:30:00;0.00;0.00;0.00
64861;PMS5003;62652;42.274;-71.436;2023-09-19T05:31:00;0.00;0.00;0.00
64861;PMS5003;62652;42.274;-71.436;2023-09-19T05:32:00;0.00;0.00;0.00
64861;PMS5003;62652;42.274;-71.436;2023-09-19T05:33:00;0.00;0.00;0.00
64861;PMS5003;62652;42.274;-71.436;2023-09-19T05:34:00;0.13;0.13;0.00
64861;PMS5003;62652;42.274;-71.436;2023-09-19T05:35:00;0.00;0.00;0.00
64861;PMS5003;62652;42.274;-71.436;2023-09-19T05:36:00;0.03;0.00;0.00
64861;PMS5003;62652;42.274;-71.436;2023-09-19T05:37:00;0.00;0.00;0.00
64861;PMS5003;62652;42.274;-71.436;2023-09-19T05:38:00;0.47;0.47;0.07
64861;PMS5003;62652;42.274;-71.436;2023-09-19T05:39:00;0.00;0.00;0.00
64861;PMS5003;62652;42.274;-71.436;2023-09-19T05:40:01;0.00;0.00;0.00
64861;PMS5003;62652;42.274;-71.436;2023-09-19T05:41:00;0.00;0.00;0.00